N2KC KDEN-KSAF
Flight info
| Callsign | N2KC |
|---|---|
| Flight time | N/A |
| Altitude | 32000 |
| Route | SUDDZ1 SUDDZ DCT SAF DCT |
| Aircraft | P180/L-SBDFGM3RWXY/LB1 |
Departure
| Time | 2026-05-05 03:16 |
|---|---|
| Airport | Denver International Airport (KDEN) |
Arrival
| Time | N/A |
|---|---|
| Airport | Santa Fe Municipal Airport (KSAF) |
| Time | Latitude | Longitude | Altitude | Speed | Heading |
|---|---|---|---|---|---|
| 2026-05-05 02:37 | 39.83851 | -104.66404 | 5370 ft | 0 kts | 76° |
| 2026-05-05 03:05 | 39.83852 | -104.66400 | 5370 ft | 2 kts | 75° |
| 2026-05-05 03:06 | 39.83857 | -104.66374 | 5369 ft | 1 kts | 71° |
| 2026-05-05 03:06 | 39.83870 | -104.66366 | 5366 ft | 3 kts | 3° |
| 2026-05-05 03:06 | 39.83892 | -104.66373 | 5368 ft | 4 kts | 351° |
| 2026-05-05 03:06 | 39.83932 | -104.66375 | 5370 ft | 8 kts | 360° |
| 2026-05-05 03:07 | 39.84001 | -104.66363 | 5369 ft | 12 kts | 28° |
| 2026-05-05 03:07 | 39.84019 | -104.66330 | 5368 ft | 0 kts | 80° |
| 2026-05-05 03:07 | 39.84020 | -104.66305 | 5367 ft | 0 kts | 90° |
| 2026-05-05 03:07 | 39.84020 | -104.66301 | 5367 ft | 2 kts | 90° |
| 2026-05-05 03:08 | 39.84020 | -104.66255 | 5366 ft | 8 kts | 90° |
| 2026-05-05 03:08 | 39.84021 | -104.66235 | 5364 ft | 2 kts | 66° |
| 2026-05-05 03:08 | 39.84057 | -104.66250 | 5366 ft | 15 kts | 342° |
| 2026-05-05 03:08 | 39.84176 | -104.66255 | 5369 ft | 19 kts | 0° |
| 2026-05-05 03:09 | 39.84325 | -104.66251 | 5373 ft | 24 kts | 0° |
| 2026-05-05 03:09 | 39.84508 | -104.66251 | 5372 ft | 27 kts | 0° |
| 2026-05-05 03:09 | 39.84697 | -104.66249 | 5374 ft | 27 kts | 0° |
| 2026-05-05 03:09 | 39.84892 | -104.66243 | 5374 ft | 22 kts | 1° |
| 2026-05-05 03:10 | 39.84916 | -104.66243 | 5372 ft | 10 kts | 359° |
| 2026-05-05 03:10 | 39.85048 | -104.66245 | 5376 ft | 20 kts | 360° |
| 2026-05-05 03:10 | 39.85158 | -104.66241 | 5376 ft | 20 kts | 0° |
| 2026-05-05 03:10 | 39.85268 | -104.66240 | 5378 ft | 18 kts | 1° |
| 2026-05-05 03:11 | 39.85386 | -104.66239 | 5382 ft | 16 kts | 2° |
| 2026-05-05 03:11 | 39.85493 | -104.66237 | 5384 ft | 15 kts | 359° |
| 2026-05-05 03:11 | 39.85596 | -104.66237 | 5386 ft | 15 kts | 1° |
| 2026-05-05 03:11 | 39.85701 | -104.66235 | 5388 ft | 15 kts | 359° |
| 2026-05-05 03:12 | 39.85809 | -104.66235 | 5390 ft | 16 kts | 1° |
| 2026-05-05 03:12 | 39.85944 | -104.66232 | 5390 ft | 22 kts | 1° |
| 2026-05-05 03:12 | 39.86105 | -104.66230 | 5390 ft | 24 kts | 1° |
| 2026-05-05 03:12 | 39.86282 | -104.66229 | 5389 ft | 27 kts | 0° |
| 2026-05-05 03:13 | 39.86477 | -104.66228 | 5387 ft | 29 kts | 360° |
| 2026-05-05 03:13 | 39.86687 | -104.66224 | 5378 ft | 32 kts | 0° |
| 2026-05-05 03:13 | 39.86921 | -104.66223 | 5367 ft | 35 kts | 360° |
| 2026-05-05 03:13 | 39.87158 | -104.66217 | 5371 ft | 32 kts | 0° |
| 2026-05-05 03:14 | 39.87342 | -104.66216 | 5377 ft | 21 kts | 2° |
| 2026-05-05 03:14 | 39.87476 | -104.66213 | 5385 ft | 18 kts | 1° |
| 2026-05-05 03:14 | 39.87598 | -104.66212 | 5387 ft | 17 kts | 0° |
| 2026-05-05 03:14 | 39.87647 | -104.66211 | 5388 ft | 0 kts | 360° |
| 2026-05-05 03:15 | 39.87648 | -104.66211 | 5388 ft | 1 kts | 360° |
| 2026-05-05 03:15 | 39.87683 | -104.66211 | 5388 ft | 13 kts | 0° |
| 2026-05-05 03:15 | 39.87755 | -104.66191 | 5387 ft | 8 kts | 77° |
| 2026-05-05 03:15 | 39.87755 | -104.66176 | 5386 ft | 0 kts | 89° |
| 2026-05-05 03:16 | 39.87756 | -104.66162 | 5386 ft | 18 kts | 90° |
| 2026-05-05 03:16 | 39.87750 | -104.65638 | 5382 ft | 97 kts | 90° |
| 2026-05-05 03:16 | 39.87733 | -104.64497 | 5477 ft | 144 kts | 89° |
| 2026-05-05 03:16 | 39.87660 | -104.63113 | 6130 ft | 162 kts | 91° |
| 2026-05-05 03:17 | 39.87314 | -104.61643 | 6723 ft | 177 kts | 110° |
| 2026-05-05 03:17 | 39.86854 | -104.60151 | 7317 ft | 182 kts | 104° |
| 2026-05-05 03:17 | 39.86427 | -104.58558 | 7970 ft | 186 kts | 106° |
| 2026-05-05 03:17 | 39.85976 | -104.56971 | 8617 ft | 187 kts | 108° |
| 2026-05-05 03:18 | 39.85535 | -104.55379 | 9298 ft | 187 kts | 109° |
| 2026-05-05 03:18 | 39.85087 | -104.53796 | 9974 ft | 186 kts | 110° |
| 2026-05-05 03:18 | 39.84643 | -104.52222 | 10563 ft | 186 kts | 110° |
| 2026-05-05 03:18 | 39.84201 | -104.50639 | 11148 ft | 187 kts | 110° |
| 2026-05-05 03:19 | 39.83296 | -104.47433 | 12243 ft | 191 kts | 111° |
| 2026-05-05 03:19 | 39.82840 | -104.45809 | 12810 ft | 191 kts | 112° |
| 2026-05-05 03:19 | 39.82382 | -104.44182 | 13356 ft | 192 kts | 112° |
| 2026-05-05 03:20 | 39.81905 | -104.42498 | 13598 ft | 211 kts | 112° |
| 2026-05-05 03:20 | 39.81356 | -104.40635 | 13605 ft | 234 kts | 117° |
| 2026-05-05 03:20 | 39.80211 | -104.39075 | 13602 ft | 244 kts | 158° |
| 2026-05-05 03:20 | 39.78591 | -104.38402 | 13601 ft | 253 kts | 171° |
| 2026-05-05 03:21 | 39.76844 | -104.37834 | 13598 ft | 264 kts | 169° |
| 2026-05-05 03:21 | 39.75053 | -104.37154 | 13592 ft | 272 kts | 167° |
| 2026-05-05 03:21 | 39.73229 | -104.36424 | 13587 ft | 277 kts | 167° |
| 2026-05-05 03:21 | 39.71352 | -104.35951 | 13618 ft | 272 kts | 186° |
| 2026-05-05 03:22 | 39.69584 | -104.36546 | 13937 ft | 253 kts | 207° |
| 2026-05-05 03:22 | 39.68043 | -104.37360 | 14699 ft | 226 kts | 206° |
| 2026-05-05 03:22 | 39.66659 | -104.38059 | 15434 ft | 205 kts | 208° |
| 2026-05-05 03:22 | 39.65338 | -104.38764 | 15714 ft | 207 kts | 209° |
| 2026-05-05 03:23 | 39.63958 | -104.39504 | 15736 ft | 221 kts | 208° |
| 2026-05-05 03:23 | 39.62530 | -104.40250 | 15982 ft | 221 kts | 207° |
| 2026-05-05 03:23 | 39.61102 | -104.40994 | 16217 ft | 221 kts | 208° |
| 2026-05-05 03:23 | 39.59675 | -104.41744 | 16436 ft | 222 kts | 208° |
| 2026-05-05 03:24 | 39.58240 | -104.42493 | 16645 ft | 223 kts | 208° |
| 2026-05-05 03:24 | 39.56803 | -104.43246 | 16829 ft | 222 kts | 207° |
| 2026-05-05 03:24 | 39.55370 | -104.43997 | 16963 ft | 222 kts | 208° |
| 2026-05-05 03:24 | 39.53932 | -104.44750 | 17080 ft | 223 kts | 208° |
| 2026-05-05 03:25 | 39.52511 | -104.45541 | 17189 ft | 221 kts | 213° |
| 2026-05-05 03:25 | 39.51272 | -104.46670 | 17363 ft | 214 kts | 222° |
| 2026-05-05 03:25 | 39.50126 | -104.47763 | 17878 ft | 198 kts | 221° |
| 2026-05-05 03:25 | 39.49023 | -104.48799 | 18044 ft | 199 kts | 222° |
| 2026-05-05 03:26 | 39.47894 | -104.49861 | 18279 ft | 197 kts | 222° |
| 2026-05-05 03:26 | 39.46801 | -104.50890 | 18452 ft | 198 kts | 222° |
| 2026-05-05 03:26 | 39.45684 | -104.51941 | 18608 ft | 199 kts | 222° |
| 2026-05-05 03:26 | 39.44565 | -104.52995 | 18784 ft | 199 kts | 222° |
| 2026-05-05 03:27 | 39.43441 | -104.54050 | 18950 ft | 200 kts | 222° |
| 2026-05-05 03:27 | 39.42313 | -104.55111 | 19129 ft | 201 kts | 222° |
| 2026-05-05 03:27 | 39.41182 | -104.56174 | 19308 ft | 202 kts | 222° |
| 2026-05-05 03:27 | 39.40046 | -104.57238 | 19496 ft | 202 kts | 222° |
| 2026-05-05 03:28 | 39.38905 | -104.58309 | 19683 ft | 203 kts | 222° |
| 2026-05-05 03:28 | 39.37761 | -104.59386 | 19865 ft | 204 kts | 222° |
| 2026-05-05 03:28 | 39.36612 | -104.60464 | 20021 ft | 205 kts | 222° |
| 2026-05-05 03:28 | 39.35459 | -104.61548 | 20212 ft | 205 kts | 222° |
| 2026-05-05 03:29 | 39.34302 | -104.62637 | 20399 ft | 206 kts | 222° |
| 2026-05-05 03:29 | 39.33142 | -104.63724 | 20588 ft | 207 kts | 222° |
| 2026-05-05 03:29 | 39.31970 | -104.64818 | 20876 ft | 208 kts | 222° |
| 2026-05-05 03:29 | 39.30801 | -104.65917 | 21238 ft | 208 kts | 223° |
| 2026-05-05 03:30 | 39.29625 | -104.67020 | 21578 ft | 210 kts | 222° |
| 2026-05-05 03:30 | 39.28440 | -104.68131 | 21917 ft | 211 kts | 223° |
| 2026-05-05 03:30 | 39.27247 | -104.69249 | 22255 ft | 213 kts | 223° |
| 2026-05-05 03:30 | 39.26048 | -104.70371 | 22613 ft | 214 kts | 223° |
| 2026-05-05 03:31 | 39.24838 | -104.71504 | 22969 ft | 216 kts | 222° |
| 2026-05-05 03:31 | 39.23618 | -104.72644 | 23343 ft | 217 kts | 223° |
| 2026-05-05 03:31 | 39.22391 | -104.73793 | 23672 ft | 219 kts | 223° |
| 2026-05-05 03:31 | 39.21155 | -104.74945 | 24013 ft | 219 kts | 223° |
| 2026-05-05 03:32 | 39.19924 | -104.76097 | 24352 ft | 219 kts | 223° |
| 2026-05-05 03:32 | 39.18687 | -104.77251 | 24687 ft | 220 kts | 223° |
| 2026-05-05 03:32 | 39.17451 | -104.78405 | 25030 ft | 220 kts | 224° |
| 2026-05-05 03:32 | 39.16212 | -104.79563 | 25367 ft | 220 kts | 224° |
| 2026-05-05 03:33 | 39.14969 | -104.80722 | 25721 ft | 221 kts | 224° |
| 2026-05-05 03:33 | 39.13721 | -104.81883 | 26071 ft | 222 kts | 224° |
| 2026-05-05 03:33 | 39.12473 | -104.83048 | 26431 ft | 222 kts | 224° |
| 2026-05-05 03:33 | 39.11193 | -104.84175 | 26789 ft | 227 kts | 217° |
| 2026-05-05 03:34 | 39.09646 | -104.84833 | 27144 ft | 238 kts | 205° |
| 2026-05-05 03:34 | 39.08051 | -104.85444 | 27411 ft | 241 kts | 207° |
| 2026-05-05 03:34 | 39.06449 | -104.86085 | 27786 ft | 241 kts | 208° |
| 2026-05-05 03:34 | 39.04836 | -104.86715 | 28021 ft | 247 kts | 208° |
| 2026-05-05 03:35 | 39.03187 | -104.87346 | 28249 ft | 252 kts | 208° |
| 2026-05-05 03:35 | 39.01494 | -104.87990 | 28674 ft | 249 kts | 209° |
| 2026-05-05 03:35 | 38.99845 | -104.88646 | 29077 ft | 248 kts | 210° |
| 2026-05-05 03:35 | 38.98222 | -104.89284 | 29489 ft | 247 kts | 210° |
| 2026-05-05 03:36 | 38.96590 | -104.89918 | 29900 ft | 245 kts | 211° |
| 2026-05-05 03:36 | 38.94964 | -104.90565 | 30177 ft | 243 kts | 212° |
| 2026-05-05 03:36 | 38.93348 | -104.91204 | 30509 ft | 242 kts | 211° |
| 2026-05-05 03:36 | 38.91736 | -104.91773 | 30890 ft | 238 kts | 212° |
| 2026-05-05 03:37 | 38.90170 | -104.92372 | 31229 ft | 232 kts | 214° |
| 2026-05-05 03:37 | 38.88648 | -104.92978 | 31610 ft | 226 kts | 215° |
| 2026-05-05 03:37 | 38.87156 | -104.93569 | 31912 ft | 225 kts | 216° |
| 2026-05-05 03:37 | 38.85625 | -104.94184 | 31919 ft | 237 kts | 214° |
| 2026-05-05 03:38 | 38.83988 | -104.94807 | 31902 ft | 252 kts | 213° |
| 2026-05-05 03:38 | 38.82309 | -104.95473 | 31919 ft | 252 kts | 216° |
| 2026-05-05 03:38 | 38.80574 | -104.96162 | 31890 ft | 268 kts | 213° |
| 2026-05-05 03:38 | 38.78749 | -104.96848 | 31882 ft | 279 kts | 213° |
| 2026-05-05 03:39 | 38.76835 | -104.97561 | 31878 ft | 292 kts | 212° |
| 2026-05-05 03:39 | 38.74857 | -104.98331 | 31882 ft | 303 kts | 212° |
| 2026-05-05 03:39 | 38.72801 | -104.99136 | 31883 ft | 314 kts | 212° |
| 2026-05-05 03:39 | 38.70672 | -104.99956 | 31878 ft | 325 kts | 211° |
| 2026-05-05 03:40 | 38.68480 | -105.00796 | 31773 ft | 332 kts | 211° |
| 2026-05-05 03:40 | 38.66240 | -105.01656 | 31770 ft | 340 kts | 210° |
| 2026-05-05 03:40 | 38.61643 | -105.03420 | 31769 ft | 347 kts | 211° |
| 2026-05-05 03:41 | 38.56979 | -105.05244 | 31754 ft | 351 kts | 211° |
| 2026-05-05 03:41 | 38.52222 | -105.06949 | 31757 ft | 357 kts | 210° |
| 2026-05-05 03:42 | 38.48297 | -105.08531 | 31747 ft | 354 kts | 211° |
| 2026-05-05 03:42 | 38.42864 | -105.10560 | 31746 ft | 345 kts | 210° |
| 2026-05-05 03:43 | 38.39067 | -105.12037 | 31746 ft | 338 kts | 211° |
| 2026-05-05 03:43 | 38.34608 | -105.13727 | 31741 ft | 334 kts | 211° |
| 2026-05-05 03:44 | 38.30189 | -105.15414 | 31750 ft | 330 kts | 211° |
| 2026-05-05 03:44 | 38.25808 | -105.17073 | 31749 ft | 327 kts | 211° |
| 2026-05-05 03:45 | 38.21460 | -105.18708 | 31771 ft | 321 kts | 213° |
| 2026-05-05 03:45 | 38.17163 | -105.20382 | 31765 ft | 325 kts | 210° |
| 2026-05-05 03:46 | 38.12834 | -105.21974 | 31790 ft | 322 kts | 212° |